sensor_id;sensor_type;location;lat;lon;timestamp;temperature;humidity
72865;DHT22;61000;48.120;11.548;2024-02-21T00:01:57;4.60;99.90
72865;DHT22;61000;48.120;11.548;2024-02-21T00:04:23;5.20;99.90
72865;DHT22;61000;48.120;11.548;2024-02-21T00:06:50;5.40;99.90
72865;DHT22;61000;48.120;11.548;2024-02-21T00:09:17;5.10;99.90
72865;DHT22;61000;48.120;11.548;2024-02-21T00:11:45;5.20;99.90
72865;DHT22;61000;48.120;11.548;2024-02-21T00:14:14;5.20;99.90
72865;DHT22;61000;48.120;11.548;2024-02-21T00:16:42;5.30;99.90
72865;DHT22;61000;48.120;11.548;2024-02-21T00:19:09;5.40;99.90
72865;DHT22;61000;48.120;11.548;2024-02-21T00:21:36;5.20;99.90
72865;DHT22;61000;48.120;11.548;2024-02-21T00:24:03;5.30;99.90
72865;DHT22;61000;48.120;11.548;2024-02-21T00:26:30;5.10;99.90
72865;DHT22;61000;48.120;11.548;2024-02-21T00:28:57;5.10;99.90
72865;DHT22;61000;48.120;11.548;2024-02-21T00:31:24;5.10;99.90
72865;DHT22;61000;48.120;11.548;2024-02-21T00:33:52;5.10;99.90
72865;DHT22;61000;48.120;11.548;2024-02-21T00:36:19;5.40;99.90
72865;DHT22;61000;48.120;11.548;2024-02-21T00:38:46;5.10;99.90
72865;DHT22;61000;48.120;11.548;2024-02-21T00:41:13;5.10;99.90
72865;DHT22;61000;48.120;11.548;2024-02-21T00:43:39;5.10;99.90
72865;DHT22;61000;48.120;11.548;2024-02-21T00:46:06;5.10;99.90
72865;DHT22;61000;48.120;11.548;2024-02-21T00:48:33;5.10;99.90
72865;DHT22;61000;48.120;11.548;2024-02-21T00:51:05;5.10;99.90
72865;DHT22;61000;48.120;11.548;2024-02-21T00:53:32;5.10;99.90
72865;DHT22;61000;48.120;11.548;2024-02-21T00:55:59;5.10;99.90
72865;DHT22;61000;48.120;11.548;2024-02-21T00:58:25;5.10;99.90
72865;DHT22;61000;48.120;11.548;2024-02-21T01:00:52;5.10;99.90
72865;DHT22;61000;48.120;11.548;2024-02-21T01:03:19;5.00;99.90
72865;DHT22;61000;48.120;11.548;2024-02-21T01:05:46;5.10;99.90
72865;DHT22;61000;48.120;11.548;2024-02-21T01:08:14;5.00;99.90
72865;DHT22;61000;48.120;11.548;2024-02-21T01:10:41;5.10;99.90
72865;DHT22;61000;48.120;11.548;2024-02-21T01:13:08;5.10;99.90
72865;DHT22;61000;48.120;11.548;2024-02-21T01:15:35;5.10;99.90
72865;DHT22;61000;48.120;11.548;2024-02-21T01:18:03;5.00;99.90
72865;DHT22;61000;48.120;11.548;2024-02-21T01:20:30;5.10;99.90
72865;DHT22;61000;48.120;11.548;2024-02-21T01:22:57;5.10;99.90
72865;DHT22;61000;48.120;11.548;2024-02-21T01:25:25;5.10;99.90
72865;DHT22;61000;48.120;11.548;2024-02-21T01:27:52;5.10;99.90
72865;DHT22;61000;48.120;11.548;2024-02-21T01:30:19;5.10;99.90
72865;DHT22;61000;48.120;11.548;2024-02-21T01:32:46;5.20;99.90
72865;DHT22;61000;48.120;11.548;2024-02-21T01:35:13;5.20;99.90
72865;DHT22;61000;48.120;11.548;2024-02-21T01:37:40;5.10;99.90
72865;DHT22;61000;48.120;11.548;2024-02-21T01:40:08;5.20;99.90
72865;DHT22;61000;48.120;11.548;2024-02-21T01:42:39;5.20;99.90
72865;DHT22;61000;48.120;11.548;2024-02-21T01:45:06;5.20;99.90
72865;DHT22;61000;48.120;11.548;2024-02-21T01:47:34;5.20;99.90
72865;DHT22;61000;48.120;11.548;2024-02-21T01:50:01;5.50;99.90
72865;DHT22;61000;48.120;11.548;2024-02-21T01:52:28;5.20;99.90
72865;DHT22;61000;48.120;11.548;2024-02-21T01:54:56;5.20;99.90
72865;DHT22;61000;48.120;11.548;2024-02-21T01:57:24;5.20;99.90
72865;DHT22;61000;48.120;11.548;2024-02-21T01:59:52;5.20;99.90
72865;DHT22;61000;48.120;11.548;2024-02-21T02:02:19;5.20;99.90
72865;DHT22;61000;48.120;11.548;2024-02-21T02:04:46;5.20;99.90
72865;DHT22;61000;48.120;11.548;2024-02-21T02:07:14;5.10;99.90
72865;DHT22;61000;48.120;11.548;2024-02-21T02:09:41;5.20;99.90
72865;DHT22;61000;48.120;11.548;2024-02-21T02:12:08;5.20;99.90
72865;DHT22;61000;48.120;11.548;2024-02-21T02:14:35;5.10;99.90
72865;DHT22;61000;48.120;11.548;2024-02-21T02:17:04;5.10;99.90
72865;DHT22;61000;48.120;11.548;2024-02-21T02:19:30;5.10;99.90
72865;DHT22;61000;48.120;11.548;2024-02-21T02:22:02;5.10;99.90
72865;DHT22;61000;48.120;11.548;2024-02-21T02:24:31;5.20;99.90
72865;DHT22;61000;48.120;11.548;2024-02-21T02:26:58;5.20;99.90
72865;DHT22;61000;48.120;11.548;2024-02-21T02:29:25;5.20;99.90
72865;DHT22;61000;48.120;11.548;2024-02-21T02:31:52;5.10;99.90
72865;DHT22;61000;48.120;11.548;2024-02-21T02:34:19;5.20;99.90
72865;DHT22;61000;48.120;11.548;2024-02-21T02:36:45;5.20;99.90
72865;DHT22;61000;48.120;11.548;2024-02-21T02:39:14;5.20;99.90
72865;DHT22;61000;48.120;11.548;2024-02-21T02:41:42;5.20;99.90
72865;DHT22;61000;48.120;11.548;2024-02-21T02:44:09;5.20;99.90
72865;DHT22;61000;48.120;11.548;2024-02-21T02:46:36;5.20;99.90
72865;DHT22;61000;48.120;11.548;2024-02-21T02:49:02;5.20;99.90
72865;DHT22;61000;48.120;11.548;2024-02-21T02:51:29;5.20;99.90
72865;DHT22;61000;48.120;11.548;2024-02-21T02:53:56;5.20;99.90
72865;DHT22;61000;48.120;11.548;2024-02-21T02:56:26;5.20;99.90
72865;DHT22;61000;48.120;11.548;2024-02-21T02:58:54;5.20;99.90
72865;DHT22;61000;48.120;11.548;2024-02-21T03:01:21;5.20;99.90
72865;DHT22;61000;48.120;11.548;2024-02-21T03:03:48;5.20;99.90
72865;DHT22;61000;48.120;11.548;2024-02-21T03:06:15;5.20;99.90
72865;DHT22;61000;48.120;11.548;2024-02-21T03:08:41;5.20;99.90
72865;DHT22;61000;48.120;11.548;2024-02-21T03:11:08;5.20;99.90
72865;DHT22;61000;48.120;11.548;2024-02-21T03:13:36;5.20;99.90
72865;DHT22;61000;48.120;11.548;2024-02-21T03:16:05;5.20;99.90
72865;DHT22;61000;48.120;11.548;2024-02-21T03:18:32;5.20;99.90
72865;DHT22;61000;48.120;11.548;2024-02-21T03:20:59;5.20;99.90
72865;DHT22;61000;48.120;11.548;2024-02-21T03:23:26;5.20;99.90
72865;DHT22;61000;48.120;11.548;2024-02-21T03:25:53;5.20;99.90
72865;DHT22;61000;48.120;11.548;2024-02-21T03:28:19;5.20;99.90
72865;DHT22;61000;48.120;11.548;2024-02-21T03:30:46;5.20;99.90
72865;DHT22;61000;48.120;11.548;2024-02-21T03:33:14;5.20;99.90
72865;DHT22;61000;48.120;11.548;2024-02-21T03:35:41;5.20;99.90
72865;DHT22;61000;48.120;11.548;2024-02-21T03:38:08;5.20;99.90
72865;DHT22;61000;48.120;11.548;2024-02-21T03:40:35;5.20;99.90
72865;DHT22;61000;48.120;11.548;2024-02-21T03:43:02;5.20;99.90
72865;DHT22;61000;48.120;11.548;2024-02-21T03:45:29;5.20;99.90
72865;DHT22;61000;48.120;11.548;2024-02-21T03:47:56;5.20;99.90
72865;DHT22;61000;48.120;11.548;2024-02-21T03:50:24;5.20;99.90
72865;DHT22;61000;48.120;11.548;2024-02-21T03:52:53;5.20;99.90
72865;DHT22;61000;48.120;11.548;2024-02-21T03:55:20;5.60;99.90
72865;DHT22;61000;48.120;11.548;2024-02-21T03:57:47;5.20;99.90
72865;DHT22;61000;48.120;11.548;2024-02-21T04:00:15;5.20;99.90
72865;DHT22;61000;48.120;11.548;2024-02-21T04:02:42;5.20;99.90
72865;DHT22;61000;48.120;11.548;2024-02-21T04:05:09;5.20;99.90
72865;DHT22;61000;48.120;11.548;2024-02-21T04:07:39;5.20;99.90
72865;DHT22;61000;48.120;11.548;2024-02-21T04:10:06;5.20;99.90
72865;DHT22;61000;48.120;11.548;2024-02-21T04:12:33;5.20;99.90
72865;DHT22;61000;48.120;11.548;2024-02-21T04:15:00;5.20;99.90
72865;DHT22;61000;48.120;11.548;2024-02-21T04:17:27;5.20;99.90
72865;DHT22;61000;48.120;11.548;2024-02-21T04:20:02;5.10;99.90
72865;DHT22;61000;48.120;11.548;2024-02-21T04:22:30;5.10;99.90
72865;DHT22;61000;48.120;11.548;2024-02-21T04:24:59;5.10;99.90
72865;DHT22;61000;48.120;11.548;2024-02-21T04:27:26;5.10;99.90
72865;DHT22;61000;48.120;11.548;2024-02-21T04:29:53;5.10;99.90
72865;DHT22;61000;48.120;11.548;2024-02-21T04:32:20;5.00;99.90
72865;DHT22;61000;48.120;11.548;2024-02-21T04:34:47;5.00;99.90
72865;DHT22;61000;48.120;11.548;2024-02-21T04:37:14;5.00;99.90
72865;DHT22;61000;48.120;11.548;2024-02-21T04:39:41;5.00;99.90
72865;DHT22;61000;48.120;11.548;2024-02-21T04:42:09;5.00;99.90
72865;DHT22;61000;48.120;11.548;2024-02-21T04:44:36;5.00;99.90
72865;DHT22;61000;48.120;11.548;2024-02-21T04:47:03;5.00;99.90
72865;DHT22;61000;48.120;11.548;2024-02-21T04:49:30;5.00;99.90
72865;DHT22;61000;48.120;11.548;2024-02-21T04:51:57;5.00;99.90
72865;DHT22;61000;48.120;11.548;2024-02-21T04:54:24;5.00;99.90
72865;DHT22;61000;48.120;11.548;2024-02-21T04:56:51;4.90;99.90
72865;DHT22;61000;48.120;11.548;2024-02-21T04:59:19;4.90;99.90
72865;DHT22;61000;48.120;11.548;2024-02-21T05:01:46;4.90;99.90
72865;DHT22;61000;48.120;11.548;2024-02-21T05:04:13;4.90;99.90
72865;DHT22;61000;48.120;11.548;2024-02-21T05:06:40;4.80;99.90
72865;DHT22;61000;48.120;11.548;2024-02-21T05:09:09;4.80;99.90
72865;DHT22;61000;48.120;11.548;2024-02-21T05:11:35;4.70;99.90
72865;DHT22;61000;48.120;11.548;2024-02-21T05:14:03;4.60;99.90
72865;DHT22;61000;48.120;11.548;2024-02-21T05:16:31;4.60;99.90
72865;DHT22;61000;48.120;11.548;2024-02-21T05:18:58;4.50;99.90
72865;DHT22;61000;48.120;11.548;2024-02-21T05:21:26;4.50;99.90
72865;DHT22;61000;48.120;11.548;2024-02-21T05:23:53;4.40;99.90
72865;DHT22;61000;48.120;11.548;2024-02-21T05:26:21;4.80;99.90
72865;DHT22;61000;48.120;11.548;2024-02-21T05:28:48;4.50;99.90
72865;DHT22;61000;48.120;11.548;2024-02-21T05:31:15;4.30;99.90
72865;DHT22;61000;48.120;11.548;2024-02-21T05:33:44;4.30;99.90
72865;DHT22;61000;48.120;11.548;2024-02-21T05:36:11;4.50;99.90
72865;DHT22;61000;48.120;11.548;2024-02-21T05:38:38;4.40;99.90
72865;DHT22;61000;48.120;11.548;2024-02-21T05:41:05;4.50;99.90
72865;DHT22;61000;48.120;11.548;2024-02-21T05:43:32;4.40;99.90
72865;DHT22;61000;48.120;11.548;2024-02-21T05:45:59;4.30;99.90
72865;DHT22;61000;48.120;11.548;2024-02-21T05:48:25;4.30;99.90
72865;DHT22;61000;48.120;11.548;2024-02-21T05:50:54;4.30;99.90
72865;DHT22;61000;48.120;11.548;2024-02-21T05:53:21;4.30;99.90
72865;DHT22;61000;48.120;11.548;2024-02-21T05:55:47;4.30;99.90
72865;DHT22;61000;48.120;11.548;2024-02-21T05:58:14;4.30;99.90
72865;DHT22;61000;48.120;11.548;2024-02-21T06:00:41;4.30;99.90
72865;DHT22;61000;48.120;11.548;2024-02-21T06:03:08;4.20;99.90
72865;DHT22;61000;48.120;11.548;2024-02-21T06:05:37;4.30;99.90
72865;DHT22;61000;48.120;11.548;2024-02-21T06:08:06;4.30;99.90
72865;DHT22;61000;48.120;11.548;2024-02-21T06:10:33;4.20;99.90
72865;DHT22;61000;48.120;11.548;2024-02-21T06:13:00;4.20;99.90
72865;DHT22;61000;48.120;11.548;2024-02-21T06:15:27;4.20;99.90
72865;DHT22;61000;48.120;11.548;2024-02-21T06:17:54;4.10;99.90
72865;DHT22;61000;48.120;11.548;2024-02-21T06:20:21;4.10;99.90
72865;DHT22;61000;48.120;11.548;2024-02-21T06:22:47;4.10;99.90
72865;DHT22;61000;48.120;11.548;2024-02-21T06:25:16;4.20;99.90
72865;DHT22;61000;48.120;11.548;2024-02-21T06:27:43;4.10;99.90
72865;DHT22;61000;48.120;11.548;2024-02-21T06:30:11;4.10;99.90
72865;DHT22;61000;48.120;11.548;2024-02-21T06:32:38;4.20;99.90
72865;DHT22;61000;48.120;11.548;2024-02-21T06:35:05;4.20;99.90
72865;DHT22;61000;48.120;11.548;2024-02-21T06:37:32;4.20;99.90
72865;DHT22;61000;48.120;11.548;2024-02-21T06:39:59;4.20;99.90
72865;DHT22;61000;48.120;11.548;2024-02-21T06:42:27;4.30;99.90
72865;DHT22;61000;48.120;11.548;2024-02-21T06:44:55;4.30;99.90
72865;DHT22;61000;48.120;11.548;2024-02-21T06:47:22;4.40;99.90
72865;DHT22;61000;48.120;11.548;2024-02-21T06:49:49;4.30;99.90
72865;DHT22;61000;48.120;11.548;2024-02-21T06:52:17;4.40;99.90
72865;DHT22;61000;48.120;11.548;2024-02-21T06:54:46;4.40;99.90
72865;DHT22;61000;48.120;11.548;2024-02-21T06:57:15;4.50;99.90
72865;DHT22;61000;48.120;11.548;2024-02-21T06:59:43;4.50;99.90
72865;DHT22;61000;48.120;11.548;2024-02-21T07:02:10;4.50;99.90
72865;DHT22;61000;48.120;11.548;2024-02-21T07:04:37;4.60;99.90
72865;DHT22;61000;48.120;11.548;2024-02-21T07:07:04;4.60;99.90
72865;DHT22;61000;48.120;11.548;2024-02-21T07:09:31;4.70;99.90
72865;DHT22;61000;48.120;11.548;2024-02-21T07:11:58;4.70;99.90
72865;DHT22;61000;48.120;11.548;2024-02-21T07:14:25;4.80;99.90
72865;DHT22;61000;48.120;11.548;2024-02-21T07:16:53;4.80;99.90
72865;DHT22;61000;48.120;11.548;2024-02-21T07:19:22;4.90;99.90
72865;DHT22;61000;48.120;11.548;2024-02-21T07:21:49;4.90;99.90
72865;DHT22;61000;48.120;11.548;2024-02-21T07:24:16;5.00;99.90
72865;DHT22;61000;48.120;11.548;2024-02-21T07:26:43;5.10;99.90
72865;DHT22;61000;48.120;11.548;2024-02-21T07:29:10;5.10;99.90
72865;DHT22;61000;48.120;11.548;2024-02-21T07:31:41;5.20;99.90
72865;DHT22;61000;48.120;11.548;2024-02-21T07:34:09;5.20;99.90
72865;DHT22;61000;48.120;11.548;2024-02-21T07:36:36;5.30;99.90
72865;DHT22;61000;48.120;11.548;2024-02-21T07:39:06;5.30;99.90
72865;DHT22;61000;48.120;11.548;2024-02-21T07:41:33;5.40;99.90
72865;DHT22;61000;48.120;11.548;2024-02-21T07:44:00;5.30;99.90
72865;DHT22;61000;48.120;11.548;2024-02-21T07:46:28;5.40;99.90
72865;DHT22;61000;48.120;11.548;2024-02-21T07:48:55;5.40;99.90
72865;DHT22;61000;48.120;11.548;2024-02-21T07:51:27;5.40;99.90
72865;DHT22;61000;48.120;11.548;2024-02-21T07:53:54;5.40;99.90
72865;DHT22;61000;48.120;11.548;2024-02-21T07:56:21;5.40;99.90
72865;DHT22;61000;48.120;11.548;2024-02-21T07:58:48;5.40;99.90
72865;DHT22;61000;48.120;11.548;2024-02-21T08:01:18;5.50;99.90
72865;DHT22;61000;48.120;11.548;2024-02-21T08:03:46;5.50;99.90
72865;DHT22;61000;48.120;11.548;2024-02-21T08:06:13;5.60;99.90
72865;DHT22;61000;48.120;11.548;2024-02-21T08:08:42;5.60;99.90
72865;DHT22;61000;48.120;11.548;2024-02-21T08:11:09;6.10;99.80
72865;DHT22;61000;48.120;11.548;2024-02-21T08:13:35;5.60;99.50
72865;DHT22;61000;48.120;11.548;2024-02-21T08:16:03;5.60;99.70
72865;DHT22;61000;48.120;11.548;2024-02-21T08:18:30;5.60;99.90
72865;DHT22;61000;48.120;11.548;2024-02-21T08:20:57;5.70;99.90
72865;DHT22;61000;48.120;11.548;2024-02-21T08:23:24;5.70;99.60
72865;DHT22;61000;48.120;11.548;2024-02-21T08:25:52;5.80;99.10
72865;DHT22;61000;48.120;11.548;2024-02-21T08:28:19;5.90;99.00
72865;DHT22;61000;48.120;11.548;2024-02-21T08:30:46;6.00;99.10
72865;DHT22;61000;48.120;11.548;2024-02-21T08:35:41;6.30;99.30
72865;DHT22;61000;48.120;11.548;2024-02-21T08:38:07;6.40;99.20
72865;DHT22;61000;48.120;11.548;2024-02-21T08:40:34;6.50;99.40
72865;DHT22;61000;48.120;11.548;2024-02-21T08:43:03;6.70;99.50
72865;DHT22;61000;48.120;11.548;2024-02-21T08:45:30;6.70;97.50
72865;DHT22;61000;48.120;11.548;2024-02-21T08:47:57;6.80;97.30
72865;DHT22;61000;48.120;11.548;2024-02-21T08:50:24;6.90;97.00
72865;DHT22;61000;48.120;11.548;2024-02-21T08:52:51;7.00;97.10
72865;DHT22;61000;48.120;11.548;2024-02-21T08:55:18;7.20;96.70
72865;DHT22;61000;48.120;11.548;2024-02-21T08:57:44;7.50;95.90
72865;DHT22;61000;48.120;11.548;2024-02-21T09:00:14;8.00;95.20
72865;DHT22;61000;48.120;11.548;2024-02-21T09:02:41;8.60;95.60
72865;DHT22;61000;48.120;11.548;2024-02-21T09:07:36;10.20;91.60
72865;DHT22;61000;48.120;11.548;2024-02-21T09:10:03;11.10;90.10
72865;DHT22;61000;48.120;11.548;2024-02-21T09:12:30;12.10;88.00
72865;DHT22;61000;48.120;11.548;2024-02-21T09:14:58;12.60;84.30
72865;DHT22;61000;48.120;11.548;2024-02-21T09:17:26;13.10;81.50
72865;DHT22;61000;48.120;11.548;2024-02-21T09:19:54;13.50;80.30
72865;DHT22;61000;48.120;11.548;2024-02-21T09:22:24;13.90;78.10
72865;DHT22;61000;48.120;11.548;2024-02-21T09:24:51;14.30;93.80
72865;DHT22;61000;48.120;11.548;2024-02-21T09:27:18;14.30;93.70
72865;DHT22;61000;48.120;11.548;2024-02-21T09:29:45;14.00;93.90
72865;DHT22;61000;48.120;11.548;2024-02-21T09:32:12;13.90;93.80
72865;DHT22;61000;48.120;11.548;2024-02-21T09:34:40;13.80;91.40
72865;DHT22;61000;48.120;11.548;2024-02-21T09:37:08;14.30;94.60
72865;DHT22;61000;48.120;11.548;2024-02-21T09:39:35;14.70;93.80
72865;DHT22;61000;48.120;11.548;2024-02-21T09:42:06;15.10;73.50
72865;DHT22;61000;48.120;11.548;2024-02-21T09:44:36;15.30;71.00
72865;DHT22;61000;48.120;11.548;2024-02-21T09:47:07;15.60;68.60
72865;DHT22;61000;48.120;11.548;2024-02-21T09:49:37;15.20;68.30
72865;DHT22;61000;48.120;11.548;2024-02-21T09:52:07;15.20;68.80
72865;DHT22;61000;48.120;11.548;2024-02-21T09:54:34;15.40;68.20
72865;DHT22;61000;48.120;11.548;2024-02-21T09:57:01;15.70;67.10
72865;DHT22;61000;48.120;11.548;2024-02-21T09:59:30;15.80;65.10
72865;DHT22;61000;48.120;11.548;2024-02-21T10:01:58;16.10;64.10
72865;DHT22;61000;48.120;11.548;2024-02-21T10:04:26;16.70;71.80
72865;DHT22;61000;48.120;11.548;2024-02-21T10:06:53;16.80;63.90
72865;DHT22;61000;48.120;11.548;2024-02-21T10:09:22;16.70;66.00
72865;DHT22;61000;48.120;11.548;2024-02-21T10:11:50;16.70;67.00
72865;DHT22;61000;48.120;11.548;2024-02-21T10:14:17;16.30;68.40
72865;DHT22;61000;48.120;11.548;2024-02-21T10:16:45;16.30;73.10
72865;DHT22;61000;48.120;11.548;2024-02-21T10:19:18;16.10;81.10
72865;DHT22;61000;48.120;11.548;2024-02-21T10:24:27;15.20;61.30
72865;DHT22;61000;48.120;11.548;2024-02-21T10:27:00;15.00;63.30
72865;DHT22;61000;48.120;11.548;2024-02-21T10:29:27;14.50;63.30
72865;DHT22;61000;48.120;11.548;2024-02-21T10:32:06;14.10;65.00
72865;DHT22;61000;48.120;11.548;2024-02-21T10:34:33;13.90;64.50
72865;DHT22;61000;48.120;11.548;2024-02-21T10:37:02;13.90;65.60
72865;DHT22;61000;48.120;11.548;2024-02-21T10:39:32;13.90;66.80
72865;DHT22;61000;48.120;11.548;2024-02-21T10:42:00;13.60;65.20
72865;DHT22;61000;48.120;11.548;2024-02-21T10:44:30;13.70;67.30
72865;DHT22;61000;48.120;11.548;2024-02-21T10:46:57;13.70;90.50
72865;DHT22;61000;48.120;11.548;2024-02-21T10:49:25;13.50;74.20
72865;DHT22;61000;48.120;11.548;2024-02-21T10:51:55;13.40;76.40
72865;DHT22;61000;48.120;11.548;2024-02-21T10:54:43;13.30;77.60
72865;DHT22;61000;48.120;11.548;2024-02-21T10:57:13;13.20;74.00
72865;DHT22;61000;48.120;11.548;2024-02-21T10:59:40;13.30;76.90
72865;DHT22;61000;48.120;11.548;2024-02-21T11:02:07;13.30;73.60
72865;DHT22;61000;48.120;11.548;2024-02-21T11:04:34;13.20;65.80
72865;DHT22;61000;48.120;11.548;2024-02-21T11:07:03;13.10;65.20
72865;DHT22;61000;48.120;11.548;2024-02-21T11:09:31;13.30;68.70
72865;DHT22;61000;48.120;11.548;2024-02-21T11:12:02;13.30;69.50
72865;DHT22;61000;48.120;11.548;2024-02-21T11:14:30;13.20;68.90
72865;DHT22;61000;48.120;11.548;2024-02-21T11:16:58;13.10;69.40
72865;DHT22;61000;48.120;11.548;2024-02-21T11:19:27;13.10;69.00
72865;DHT22;61000;48.120;11.548;2024-02-21T11:21:56;13.30;70.90
72865;DHT22;61000;48.120;11.548;2024-02-21T11:24:28;13.40;75.20
72865;DHT22;61000;48.120;11.548;2024-02-21T11:26:55;13.40;74.70
72865;DHT22;61000;48.120;11.548;2024-02-21T11:29:26;13.50;82.80
72865;DHT22;61000;48.120;11.548;2024-02-21T11:31:54;13.40;80.00
72865;DHT22;61000;48.120;11.548;2024-02-21T11:34:21;13.40;82.80
72865;DHT22;61000;48.120;11.548;2024-02-21T11:36:49;13.40;80.20
72865;DHT22;61000;48.120;11.548;2024-02-21T11:39:20;13.40;80.20
72865;DHT22;61000;48.120;11.548;2024-02-21T11:41:48;13.30;82.10
72865;DHT22;61000;48.120;11.548;2024-02-21T11:44:26;13.20;84.80
72865;DHT22;61000;48.120;11.548;2024-02-21T11:46:53;13.20;86.60
72865;DHT22;61000;48.120;11.548;2024-02-21T11:49:21;13.10;88.00
72865;DHT22;61000;48.120;11.548;2024-02-21T11:51:47;13.10;89.40
72865;DHT22;61000;48.120;11.548;2024-02-21T11:54:14;13.30;88.60
72865;DHT22;61000;48.120;11.548;2024-02-21T11:56:42;13.10;88.90
72865;DHT22;61000;48.120;11.548;2024-02-21T11:59:09;13.20;89.10
72865;DHT22;61000;48.120;11.548;2024-02-21T12:01:37;13.30;90.80
72865;DHT22;61000;48.120;11.548;2024-02-21T12:04:04;13.50;91.00
72865;DHT22;61000;48.120;11.548;2024-02-21T12:06:32;13.60;90.30
72865;DHT22;61000;48.120;11.548;2024-02-21T12:08:59;13.70;90.10
72865;DHT22;61000;48.120;11.548;2024-02-21T12:11:27;13.80;90.30
72865;DHT22;61000;48.120;11.548;2024-02-21T12:14:00;13.80;90.00
72865;DHT22;61000;48.120;11.548;2024-02-21T12:16:32;13.80;90.00
72865;DHT22;61000;48.120;11.548;2024-02-21T12:19:00;13.90;89.90
72865;DHT22;61000;48.120;11.548;2024-02-21T12:21:31;13.80;89.60
72865;DHT22;61000;48.120;11.548;2024-02-21T12:23:58;13.90;90.80
72865;DHT22;61000;48.120;11.548;2024-02-21T12:26:25;13.90;87.10
72865;DHT22;61000;48.120;11.548;2024-02-21T12:28:53;14.00;87.50
72865;DHT22;61000;48.120;11.548;2024-02-21T12:31:21;14.00;83.00
72865;DHT22;61000;48.120;11.548;2024-02-21T12:33:48;14.10;82.50
72865;DHT22;61000;48.120;11.548;2024-02-21T12:36:16;14.20;81.30
72865;DHT22;61000;48.120;11.548;2024-02-21T12:38:43;14.20;81.70
72865;DHT22;61000;48.120;11.548;2024-02-21T12:41:12;14.30;81.60
72865;DHT22;61000;48.120;11.548;2024-02-21T12:43:39;14.30;79.70
72865;DHT22;61000;48.120;11.548;2024-02-21T12:46:06;14.30;74.40
72865;DHT22;61000;48.120;11.548;2024-02-21T12:48:33;14.30;78.50
72865;DHT22;61000;48.120;11.548;2024-02-21T12:51:00;14.30;77.70
72865;DHT22;61000;48.120;11.548;2024-02-21T12:53:28;14.30;78.10
72865;DHT22;61000;48.120;11.548;2024-02-21T12:55:55;14.30;76.00
72865;DHT22;61000;48.120;11.548;2024-02-21T12:58:22;14.40;76.00
72865;DHT22;61000;48.120;11.548;2024-02-21T13:00:49;14.30;75.00
72865;DHT22;61000;48.120;11.548;2024-02-21T13:03:16;14.30;73.80
72865;DHT22;61000;48.120;11.548;2024-02-21T13:05:43;14.30;73.30
72865;DHT22;61000;48.120;11.548;2024-02-21T13:08:10;14.40;73.40
72865;DHT22;61000;48.120;11.548;2024-02-21T13:10:39;14.40;73.80
72865;DHT22;61000;48.120;11.548;2024-02-21T13:13:06;14.40;72.90
72865;DHT22;61000;48.120;11.548;2024-02-21T13:15:32;14.30;74.00
72865;DHT22;61000;48.120;11.548;2024-02-21T13:18:00;14.30;74.90
72865;DHT22;61000;48.120;11.548;2024-02-21T13:20:26;14.40;73.90
72865;DHT22;61000;48.120;11.548;2024-02-21T13:22:54;14.40;75.30
72865;DHT22;61000;48.120;11.548;2024-02-21T13:25:21;14.30;74.30
72865;DHT22;61000;48.120;11.548;2024-02-21T13:27:49;14.30;74.40
72865;DHT22;61000;48.120;11.548;2024-02-21T13:30:16;14.50;74.80
72865;DHT22;61000;48.120;11.548;2024-02-21T13:32:43;14.40;75.20
72865;DHT22;61000;48.120;11.548;2024-02-21T13:35:12;14.30;75.10
72865;DHT22;61000;48.120;11.548;2024-02-21T13:37:40;14.40;76.20
72865;DHT22;61000;48.120;11.548;2024-02-21T13:40:07;14.30;74.10
72865;DHT22;61000;48.120;11.548;2024-02-21T13:42:35;14.20;74.30
72865;DHT22;61000;48.120;11.548;2024-02-21T13:45:05;14.20;73.90
72865;DHT22;61000;48.120;11.548;2024-02-21T13:47:32;14.20;74.40
72865;DHT22;61000;48.120;11.548;2024-02-21T13:49:59;14.20;74.80
72865;DHT22;61000;48.120;11.548;2024-02-21T13:52:26;14.20;74.90
72865;DHT22;61000;48.120;11.548;2024-02-21T13:54:53;14.20;75.70
72865;DHT22;61000;48.120;11.548;2024-02-21T13:57:19;14.10;74.60
72865;DHT22;61000;48.120;11.548;2024-02-21T13:59:46;14.10;74.50
72865;DHT22;61000;48.120;11.548;2024-02-21T14:02:15;14.20;75.00
72865;DHT22;61000;48.120;11.548;2024-02-21T14:04:41;14.20;76.10
72865;DHT22;61000;48.120;11.548;2024-02-21T14:07:09;14.30;75.50
72865;DHT22;61000;48.120;11.548;2024-02-21T14:09:35;14.30;75.00
72865;DHT22;61000;48.120;11.548;2024-02-21T14:12:02;14.20;74.90
72865;DHT22;61000;48.120;11.548;2024-02-21T14:14:34;13.90;75.30
72865;DHT22;61000;48.120;11.548;2024-02-21T14:17:01;14.00;75.70
72865;DHT22;61000;48.120;11.548;2024-02-21T14:19:29;14.00;76.40
72865;DHT22;61000;48.120;11.548;2024-02-21T14:21:56;14.10;76.40
72865;DHT22;61000;48.120;11.548;2024-02-21T14:24:23;14.10;76.00
72865;DHT22;61000;48.120;11.548;2024-02-21T14:26:50;13.90;76.20
72865;DHT22;61000;48.120;11.548;2024-02-21T14:29:16;14.10;76.60
72865;DHT22;61000;48.120;11.548;2024-02-21T14:31:43;14.20;75.90
72865;DHT22;61000;48.120;11.548;2024-02-21T14:34:10;14.00;75.50
72865;DHT22;61000;48.120;11.548;2024-02-21T14:36:38;14.10;77.20
72865;DHT22;61000;48.120;11.548;2024-02-21T14:39:06;14.00;75.20
72865;DHT22;61000;48.120;11.548;2024-02-21T14:41:33;14.00;75.80
72865;DHT22;61000;48.120;11.548;2024-02-21T14:44:01;14.00;75.70
72865;DHT22;61000;48.120;11.548;2024-02-21T14:46:29;14.10;75.80
72865;DHT22;61000;48.120;11.548;2024-02-21T14:48:56;14.00;75.90
72865;DHT22;61000;48.120;11.548;2024-02-21T14:51:23;13.90;75.70
72865;DHT22;61000;48.120;11.548;2024-02-21T14:53:51;13.90;75.90
72865;DHT22;61000;48.120;11.548;2024-02-21T14:56:18;13.90;76.20
72865;DHT22;61000;48.120;11.548;2024-02-21T14:58:45;13.90;75.50
72865;DHT22;61000;48.120;11.548;2024-02-21T15:01:12;14.00;75.30
72865;DHT22;61000;48.120;11.548;2024-02-21T15:03:39;13.90;74.90
72865;DHT22;61000;48.120;11.548;2024-02-21T15:06:06;13.90;74.80
72865;DHT22;61000;48.120;11.548;2024-02-21T15:08:33;13.80;75.30
72865;DHT22;61000;48.120;11.548;2024-02-21T15:11:03;13.80;75.30
72865;DHT22;61000;48.120;11.548;2024-02-21T15:13:30;13.70;75.50
72865;DHT22;61000;48.120;11.548;2024-02-21T15:15:57;13.80;76.20
72865;DHT22;61000;48.120;11.548;2024-02-21T15:18:23;13.80;77.00
72865;DHT22;61000;48.120;11.548;2024-02-21T15:20:50;13.70;77.00
72865;DHT22;61000;48.120;11.548;2024-02-21T15:23:17;13.80;77.20
72865;DHT22;61000;48.120;11.548;2024-02-21T15:25:45;13.60;67.20
72865;DHT22;61000;48.120;11.548;2024-02-21T15:28:14;13.50;68.70
72865;DHT22;61000;48.120;11.548;2024-02-21T15:30:40;13.50;70.20
72865;DHT22;61000;48.120;11.548;2024-02-21T15:33:07;13.50;72.40
72865;DHT22;61000;48.120;11.548;2024-02-21T15:35:35;13.50;74.50